Time;durP1;ratioP1;P1;durP2;ratioP2;P2;SDS_P1;SDS_P2;PMS_P1;PMS_P2;Temp;Humidity;BMP_temperature;BMP_pressure;BME280_temperature;BME280_humidity;BME280_pressure;Samples;Min_cycle;Max_cycle;Signal;HPM_P1;HPM_P2
2023/02/03 00:01:35;;;;;;;7.75;3.70;;;;;;;2.71;100.00;100611.19;10529636;28;20050;-76
2023/02/03 00:06:37;;;;;;;7.20;2.70;;;;;;;2.74;100.00;100619.00;10548413;28;20447;-77
2023/02/03 00:11:38;;;;;;;6.05;2.95;;;;;;;2.87;99.89;100607.00;10549606;28;20485;-76
2023/02/03 00:16:40;;;;;;;5.68;3.10;;;;;;;2.90;100.00;100612.22;10550193;28;20066;-77
2023/02/03 00:21:42;;;;;;;6.63;3.00;;;;;;;2.91;100.00;100611.38;10533552;28;20097;-76
2023/02/03 00:26:44;;;;;;;5.95;2.40;;;;;;;2.95;100.00;100607.94;10544028;22;20448;-77
2023/02/03 00:31:45;;;;;;;7.25;2.95;;;;;;;2.84;100.00;100604.41;10580227;28;20067;-78
2023/02/03 00:36:48;;;;;;;5.88;2.85;;;;;;;2.81;100.00;100598.31;10600342;28;20508;-79
2023/02/03 00:41:49;;;;;;;8.50;3.28;;;;;;;2.70;100.00;100585.22;10609495;28;20466;-78
2023/02/03 00:46:51;;;;;;;9.27;2.60;;;;;;;2.66;100.00;100573.09;10608888;28;20131;-78
2023/02/03 00:51:53;;;;;;;9.57;3.30;;;;;;;2.58;100.00;100564.34;10591256;28;20046;-78
2023/02/03 00:56:54;;;;;;;8.02;3.15;;;;;;;2.45;100.00;100553.00;10611625;28;20138;-78
2023/02/03 01:01:56;;;;;;;10.52;2.58;;;;;;;2.45;100.00;100540.00;10593035;28;20048;-78
2023/02/03 01:06:58;;;;;;;9.63;2.60;;;;;;;2.43;100.00;100539.13;10583945;28;20048;-78
2023/02/03 01:12:00;;;;;;;5.90;2.65;;;;;;;2.43;100.00;100529.59;10584068;28;20101;-78
2023/02/03 01:17:02;;;;;;;6.47;2.35;;;;;;;2.43;100.00;100511.44;10583768;28;20082;-78
2023/02/03 01:22:04;;;;;;;6.78;3.00;;;;;;;2.27;100.00;100497.47;10594423;28;20429;-78
2023/02/03 01:27:06;;;;;;;7.15;2.75;;;;;;;2.27;100.00;100487.09;10610150;28;20055;-78
2023/02/03 01:32:07;;;;;;;4.43;2.90;;;;;;;2.15;100.00;100476.59;10610410;28;20047;-79
2023/02/03 01:37:09;;;;;;;5.88;2.45;;;;;;;2.13;100.00;100462.78;10611407;28;20052;-79
2023/02/03 01:42:14;;;;;;;6.43;2.42;;;;;;;2.10;100.00;100444.56;10609802;28;20103;-79
2023/02/03 01:47:16;;;;;;;6.43;2.25;;;;;;;2.18;100.00;100453.31;10605984;28;20505;-78
2023/02/03 01:52:18;;;;;;;8.05;2.80;;;;;;;2.01;100.00;100440.19;10587573;28;20043;-79
2023/02/03 01:57:33;;;;;;;8.40;2.40;;;;;;;2.24;100.00;100434.31;10610832;28;20095;-78
2023/02/03 02:02:36;;;;;;;8.93;2.67;;;;;;;2.14;100.00;100419.53;10590645;28;20043;-79
2023/02/03 02:07:39;;;;;;;6.68;2.28;;;;;;;2.10;100.00;100405.69;10591356;28;20054;-79
2023/02/03 02:12:43;;;;;;;9.77;2.95;;;;;;;2.17;100.00;100385.84;10589801;28;20067;-79
2023/02/03 02:18:00;;;;;;;6.63;2.78;;;;;;;2.25;100.00;100371.19;10590876;28;20044;-78
2023/02/03 02:23:35;;;;;;;4.93;2.20;;;;;;;2.30;100.00;100376.44;10606588;28;20032;-78
2023/02/03 02:28:49;;;;;;;8.18;2.38;;;;;;;2.02;100.00;100355.47;10589780;28;20054;-77
2023/02/03 02:34:30;;;;;;;4.55;2.28;;;;;;;1.94;100.00;100349.34;10607981;28;20047;-78
2023/02/03 02:39:44;;;;;;;6.65;2.53;;;;;;;1.94;100.00;100338.97;10589450;28;20071;-79
2023/02/03 02:45:13;;;;;;;5.95;2.28;;;;;;;2.05;100.00;100333.91;10591511;28;20114;-79
2023/02/03 02:50:22;;;;;;;6.68;2.42;;;;;;;2.01;100.00;100323.50;10574630;28;20046;-79
2023/02/03 02:55:29;;;;;;;3.53;1.83;;;;;;;2.18;100.00;100309.78;10610337;28;20042;-79
2023/02/03 03:00:35;;;;;;;2.55;1.75;;;;;;;2.26;100.00;100284.78;10590283;28;20047;-79
2023/02/03 03:05:40;;;;;;;2.63;1.80;;;;;;;2.68;100.00;100265.06;10587964;28;20407;-79
2023/02/03 03:10:44;;;;;;;1.85;1.63;;;;;;;3.06;100.00;100251.34;10605299;28;20055;-78
2023/02/03 03:15:47;;;;;;;2.20;2.00;;;;;;;3.41;100.00;100240.97;10586993;28;20574;-78
2023/02/03 03:20:52;;;;;;;2.63;2.42;;;;;;;3.61;100.00;100234.06;10602130;28;20078;-79
2023/02/03 03:26:03;;;;;;;2.80;2.60;;;;;;;3.69;100.00;100227.13;10583417;28;20073;-79
2023/02/03 03:31:05;;;;;;;3.20;2.92;;;;;;;3.94;100.00;100221.88;10581632;28;20039;-79
2023/02/03 03:36:22;;;;;;;4.40;3.03;;;;;;;4.13;100.00;100222.75;10582957;28;20501;-79
2023/02/03 03:41:33;;;;;;;3.63;3.33;;;;;;;4.17;100.00;100217.53;10584266;28;20420;-79
2023/02/03 03:46:48;;;;;;;3.42;3.20;;;;;;;4.28;100.00;100222.69;10600313;28;20097;-79
2023/02/03 03:52:05;;;;;;;4.00;3.63;;;;;;;4.30;100.00;100214.00;10602253;28;20055;-79
2023/02/03 03:57:22;;;;;;;4.55;4.25;;;;;;;4.26;100.00;100219.22;10603294;28;20051;-78
2023/02/03 04:02:24;;;;;;;4.43;4.13;;;;;;;4.61;100.00;100195.66;10600714;28;20040;-78
2023/02/03 04:07:44;;;;;;;5.60;5.20;;;;;;;4.73;100.00;100163.47;10580654;28;20047;-78
2023/02/03 04:12:46;;;;;;;5.32;4.68;;;;;;;4.81;100.00;100140.84;10601724;28;20051;-77
2023/02/03 04:17:48;;;;;;;4.15;3.85;;;;;;;5.02;100.00;100127.69;10603743;28;20097;-78
2023/02/03 04:22:50;;;;;;;4.85;4.38;;;;;;;5.02;100.00;100126.81;10603557;28;20063;-79
2023/02/03 04:27:51;;;;;;;4.45;4.15;;;;;;;5.00;100.00;100126.84;10605177;28;20055;-79
2023/02/03 04:32:53;;;;;;;3.88;3.58;;;;;;;5.13;100.00;100118.91;10600255;28;20546;-78
2023/02/03 04:37:55;;;;;;;4.82;4.43;;;;;;;5.12;100.00;100130.22;10579757;28;20047;-78
2023/02/03 04:42:57;;;;;;;5.28;4.88;;;;;;;5.27;100.00;100132.69;10579832;28;20044;-79
2023/02/03 04:47:58;;;;;;;5.82;5.38;;;;;;;5.34;100.00;100125.69;10583295;28;20560;-78
2023/02/03 04:53:00;;;;;;;6.35;5.88;;;;;;;5.39;100.00;100121.28;10598912;28;20051;-78
2023/02/03 04:58:02;;;;;;;7.20;6.65;;;;;;;5.32;100.00;100125.69;10594409;28;20407;-78
2023/02/03 05:03:04;;;;;;;7.40;6.80;;;;;;;5.27;100.00;100124.88;10604648;28;20047;-78
2023/02/03 05:08:06;;;;;;;7.38;6.88;;;;;;;5.36;100.00;100118.69;10602546;28;20067;-77
2023/02/03 05:13:08;;;;;;;7.63;6.45;;;;;;;5.30;100.00;100114.41;10601530;28;20085;-78
2023/02/03 05:18:09;;;;;;;7.22;6.70;;;;;;;5.35;100.00;100106.53;10603556;28;20079;-79
2023/02/03 05:23:11;;;;;;;7.85;7.35;;;;;;;5.34;100.00;100100.47;10606996;28;20071;-78
2023/02/03 05:28:13;;;;;;;8.07;7.57;;;;;;;5.48;100.00;100079.47;10614846;28;20081;-79
2023/02/03 05:33:15;;;;;;;8.02;7.43;;;;;;;5.49;100.00;100076.88;10591960;28;20066;-78
2023/02/03 05:38:17;;;;;;;7.53;6.93;;;;;;;5.40;100.00;100050.91;10612808;28;20143;-78
2023/02/03 05:43:19;;;;;;;7.88;7.28;;;;;;;5.63;100.00;100071.50;10612954;28;20036;-78
2023/02/03 05:48:21;;;;;;;8.32;7.70;;;;;;;5.55;100.00;100062.91;10593204;28;20055;-78
2023/02/03 05:53:23;;;;;;;8.52;7.90;;;;;;;5.64;100.00;100065.41;10607261;28;20039;-78
2023/02/03 05:58:25;;;;;;;7.65;7.10;;;;;;;5.61;100.00;100085.44;10611668;28;20071;-78
2023/02/03 06:03:26;;;;;;;7.93;7.32;;;;;;;5.81;100.00;100080.88;10608934;28;20040;-78
2023/02/03 06:08:28;;;;;;;8.52;7.82;;;;;;;5.86;100.00;100073.84;10589026;28;20047;-78
2023/02/03 06:13:30;;;;;;;7.90;7.35;;;;;;;5.78;100.00;100079.16;10600482;28;20039;-78
2023/02/03 06:18:32;;;;;;;7.30;6.75;;;;;;;5.87;100.00;100072.09;10599770;27;20058;-78
2023/02/03 06:23:34;;;;;;;7.70;7.10;;;;;;;5.89;100.00;100068.59;10572762;28;20039;-79
2023/02/03 06:28:37;;;;;;;7.88;7.22;;;;;;;5.99;100.00;100032.84;10550160;22;20072;-73
2023/02/03 06:33:38;;;;;;;6.00;5.50;;;;;;;6.00;100.00;100048.47;10571205;28;20172;-73
2023/02/03 06:38:40;;;;;;;6.22;5.75;;;;;;;5.95;100.00;100042.47;10590064;28;20450;-72
2023/02/03 06:43:42;;;;;;;6.78;6.22;;;;;;;5.95;100.00;100033.78;10590688;28;20374;-73
2023/02/03 06:48:44;;;;;;;6.72;6.22;;;;;;;5.93;100.00;100027.69;10570902;28;20047;-73
2023/02/03 06:53:45;;;;;;;6.60;6.20;;;;;;;5.90;100.00;100017.28;10590900;28;20142;-72
2023/02/03 06:58:47;;;;;;;7.20;6.70;;;;;;;5.89;100.00;100012.94;10590798;28;20046;-73
2023/02/03 07:03:49;;;;;;;7.25;6.35;;;;;;;5.81;100.00;99986.97;10573300;28;20119;-73
2023/02/03 07:08:51;;;;;;;7.30;6.65;;;;;;;5.68;100.00;99982.78;10589468;28;20131;-73
2023/02/03 07:13:52;;;;;;;7.38;6.68;;;;;;;5.78;100.00;99974.81;10591308;28;20050;-72
2023/02/03 07:18:54;;;;;;;5.50;5.10;;;;;;;5.82;100.00;99965.22;10572551;28;20047;-72
2023/02/03 07:23:56;;;;;;;5.45;5.03;;;;;;;5.94;100.00;99951.16;10590321;28;20407;-73
2023/02/03 07:28:59;;;;;;;4.60;4.30;;;;;;;6.04;100.00;99960.59;10589890;28;20412;-73
2023/02/03 07:34:01;;;;;;;4.38;3.97;;;;;;;6.12;100.00;99948.28;10589575;28;20085;-73
2023/02/03 07:39:03;;;;;;;4.32;3.58;;;;;;;6.15;100.00;99956.06;10571746;28;20529;-73
2023/02/03 07:44:05;;;;;;;5.10;3.53;;;;;;;6.18;100.00;99942.97;10589228;28;20058;-72
2023/02/03 07:49:07;;;;;;;3.78;3.20;;;;;;;6.19;100.00;99954.25;10570137;28;20047;-72
2023/02/03 07:54:09;;;;;;;5.00;3.15;;;;;;;6.03;100.00;99944.06;10588857;28;20031;-72
2023/02/03 07:59:10;;;;;;;3.72;3.28;;;;;;;5.98;100.00;99943.28;10588541;28;20097;-72
2023/02/03 08:04:15;;;;;;;3.25;2.95;;;;;;;5.86;100.00;99943.41;10589358;28;20040;-72
2023/02/03 08:09:17;;;;;;;3.45;3.10;;;;;;;5.85;100.00;99923.44;10589292;28;20481;-71
2023/02/03 08:14:18;;;;;;;3.53;2.90;;;;;;;5.94;100.00;99919.88;10589790;28;20046;-72
2023/02/03 08:19:20;;;;;;;3.13;2.83;;;;;;;5.81;100.00;99909.56;10589024;28;20115;-73
2023/02/03 08:24:22;;;;;;;3.08;2.75;;;;;;;5.85;100.00;99910.41;10571364;28;20044;-73
2023/02/03 08:29:24;;;;;;;3.25;2.92;;;;;;;5.95;100.00;99904.19;10571106;28;20067;-72
2023/02/03 08:34:26;;;;;;;3.30;2.75;;;;;;;5.99;100.00;99899.78;10571698;28;20484;-74
2023/02/03 08:39:27;;;;;;;4.00;2.78;;;;;;;6.00;100.00;99898.88;10589928;28;20134;-74
2023/02/03 08:44:31;;;;;;;3.63;2.88;;;;;;;5.98;100.00;99890.25;10570820;28;20047;-73
2023/02/03 08:49:34;;;;;;;3.40;3.10;;;;;;;5.91;100.00;99881.59;10582576;28;20040;-73
2023/02/03 08:54:36;;;;;;;3.72;3.03;;;;;;;5.96;100.00;99881.56;10548617;28;20050;-72
2023/02/03 08:59:40;;;;;;;3.78;3.05;;;;;;;5.94;100.00;99871.16;10577830;28;20057;-74
2023/02/03 09:04:42;;;;;;;3.88;3.30;;;;;;;5.93;100.00;99874.66;10578056;28;20047;-72
2023/02/03 09:09:44;;;;;;;3.40;3.10;;;;;;;5.96;100.00;99866.75;10555740;28;20176;-73
2023/02/03 09:14:46;;;;;;;4.35;3.72;;;;;;;5.77;100.00;99839.22;10553990;28;20044;-72
2023/02/03 09:19:57;;;;;;;4.70;4.13;;;;;;;5.85;100.00;99832.13;10553744;28;20051;-73
2023/02/03 09:25:00;;;;;;;4.45;3.65;;;;;;;5.91;100.00;99834.63;10577767;28;20043;-72
2023/02/03 09:30:02;;;;;;;3.83;3.53;;;;;;;5.96;100.00;99805.91;10577139;28;20092;-72
2023/02/03 09:35:04;;;;;;;4.43;4.03;;;;;;;5.86;100.00;99819.94;10594969;28;20131;-72
2023/02/03 09:40:09;;;;;;;4.10;3.80;;;;;;;5.91;100.00;99785.06;10594761;28;20039;-73
2023/02/03 09:45:25;;;;;;;4.88;4.47;;;;;;;5.89;100.00;99773.81;10595180;28;20500;-72
2023/02/03 09:50:30;;;;;;;5.93;4.73;;;;;;;5.85;100.00;99732.16;10577648;28;20039;-72
2023/02/03 09:55:38;;;;;;;5.00;4.43;;;;;;;5.82;100.00;99738.28;10595415;28;20053;-72
2023/02/03 10:00:50;;;;;;;6.38;5.38;;;;;;;5.93;100.00;99738.09;10576759;28;20073;-73
2023/02/03 10:06:09;;;;;;;4.15;3.75;;;;;;;5.97;100.00;99719.75;10575868;28;20139;-72
2023/02/03 10:11:20;;;;;;;5.22;3.47;;;;;;;6.05;100.00;99712.66;10576926;28;20050;-71
2023/02/03 10:16:45;;;;;;;6.45;4.07;;;;;;;6.06;100.00;99703.06;10593864;28;20077;-73
2023/02/03 10:21:54;;;;;;;6.38;4.15;;;;;;;6.10;100.00;99696.91;10594485;28;20093;-73
2023/02/03 10:26:56;;;;;;;3.53;3.22;;;;;;;6.02;100.00;99686.66;10594655;28;20028;-73
2023/02/03 10:31:58;;;;;;;4.75;3.67;;;;;;;6.13;100.00;99691.66;10593143;28;20040;-72
2023/02/03 10:37:43;;;;;;;4.95;3.92;;;;;;;6.10;100.00;99690.84;10574672;28;20093;-72
2023/02/03 10:48:14;;;;;;;7.25;3.63;;;;;;;6.26;100.00;99672.25;10593348;28;20527;-72
2023/02/03 10:53:38;;;;;;;4.10;3.17;;;;;;;6.29;100.00;99656.53;10594570;28;20106;-73
2023/02/03 10:58:52;;;;;;;4.32;2.58;;;;;;;6.46;100.00;99643.13;10593698;28;20126;-72
2023/02/03 11:03:57;;;;;;;3.85;2.30;;;;;;;6.59;100.00;99630.66;10576218;28;20050;-74
2023/02/03 11:08:59;;;;;;;3.95;2.28;;;;;;;6.55;100.00;99629.88;10573842;28;20044;-71
2023/02/03 11:14:01;;;;;;;3.65;2.05;;;;;;;6.69;100.00;99633.94;10573823;28;20048;-73
2023/02/03 11:19:06;;;;;;;2.78;2.00;;;;;;;6.71;100.00;99639.97;10590752;28;20489;-72
2023/02/03 11:24:27;;;;;;;2.25;1.88;;;;;;;6.73;100.00;99623.38;10571816;28;20043;-72
2023/02/03 11:29:37;;;;;;;3.55;1.80;;;;;;;6.69;100.00;99597.38;10572636;28;20043;-73
2023/02/03 11:34:46;;;;;;;3.55;2.00;;;;;;;6.63;100.00;99614.03;10590915;28;20423;-72
2023/02/03 11:39:48;;;;;;;3.42;1.92;;;;;;;6.56;100.00;99628.97;10571479;28;20043;-73
2023/02/03 11:44:49;;;;;;;5.05;2.40;;;;;;;6.49;100.00;99622.16;10587799;28;20036;-72
2023/02/03 11:49:57;;;;;;;3.30;1.67;;;;;;;6.50;100.00;99600.38;10571274;28;20516;-72
2023/02/03 11:55:25;;;;;;;2.47;2.28;;;;;;;6.56;100.00;99607.25;10573777;28;20039;-72
2023/02/03 12:00:36;;;;;;;2.28;1.55;;;;;;;6.64;100.00;99580.94;10555519;28;20096;-73
2023/02/03 12:05:57;;;;;;;1.83;1.58;;;;;;;6.74;100.00;99533.69;10589836;28;20039;-71
2023/02/03 12:11:14;;;;;;;2.38;1.33;;;;;;;6.80;100.00;99490.88;10570740;28;20046;-73
2023/02/03 12:16:18;;;;;;;1.90;1.38;;;;;;;6.81;100.00;99443.78;10570697;28;20045;-73
2023/02/03 12:21:29;;;;;;;1.52;1.25;;;;;;;6.88;100.00;99538.56;10592118;28;20040;-72
2023/02/03 12:26:40;;;;;;;1.40;0.90;;;;;;;7.05;100.00;99541.63;10581460;22;20058;-73
2023/02/03 12:31:47;;;;;;;1.13;0.82;;;;;;;7.10;100.00;99549.34;10521799;28;20146;-72
2023/02/03 12:37:15;;;;;;;1.55;0.65;;;;;;;7.25;100.00;99550.69;10548301;28;20040;-73
2023/02/03 12:42:31;;;;;;;2.25;0.95;;;;;;;7.18;100.00;99538.69;10548865;28;20131;-72
2023/02/03 12:47:49;;;;;;;0.80;0.75;;;;;;;7.31;100.00;99534.88;10550336;28;20090;-72
2023/02/03 12:52:57;;;;;;;1.42;0.73;;;;;;;7.37;100.00;99532.06;10547975;28;20036;-72
2023/02/03 12:58:10;;;;;;;1.08;0.90;;;;;;;7.23;100.00;99526.34;10548264;28;20032;-72
2023/02/03 13:03:18;;;;;;;1.95;1.00;;;;;;;7.25;100.00;99528.00;10548847;28;20101;-73
2023/02/03 13:08:34;;;;;;;2.60;1.23;;;;;;;7.17;100.00;99539.56;10551336;28;20047;-72
2023/02/03 13:13:44;;;;;;;2.75;1.27;;;;;;;7.00;100.00;99587.91;10529217;28;20481;-72
2023/02/03 13:18:52;;;;;;;3.15;1.13;;;;;;;6.09;100.00;99605.63;10547064;28;20039;-73
2023/02/03 13:23:55;;;;;;;3.97;1.00;;;;;;;5.40;100.00;99618.19;10550384;28;20396;-73
2023/02/03 13:29:13;;;;;;;4.70;1.35;;;;;;;5.74;100.00;99607.16;10548428;28;20044;-73
2023/02/03 13:34:36;;;;;;;5.55;1.10;;;;;;;5.86;100.00;99630.38;10547197;28;20048;-72
2023/02/03 13:39:44;;;;;;;7.57;1.20;;;;;;;6.03;100.00;99635.31;10546575;28;20040;-72
2023/02/03 13:44:51;;;;;;;6.20;1.95;;;;;;;6.05;99.35;99629.16;10546401;28;20439;-73
2023/02/03 13:49:59;;;;;;;10.13;1.95;;;;;;;6.03;96.53;99632.72;10529748;28;20126;-72
2023/02/03 13:55:02;;;;;;;9.85;2.05;;;;;;;6.09;93.82;99648.22;10528432;28;20044;-73
2023/02/03 14:00:26;;;;;;;9.13;2.65;;;;;;;6.15;89.44;99652.47;10546746;28;20504;-72
2023/02/03 14:05:41;;;;;;;9.05;1.90;;;;;;;6.18;88.78;99660.25;10527615;28;20052;-72
2023/02/03 14:10:43;;;;;;;13.43;2.13;;;;;;;6.14;90.50;99666.41;10549193;28;20032;-72
2023/02/03 14:16:22;;;;;;;8.57;1.70;;;;;;;6.06;91.04;99671.78;10545258;28;20041;-72
2023/02/03 14:21:29;;;;;;;11.80;2.50;;;;;;;6.07;87.82;99681.34;10545085;28;20044;-71
2023/02/03 14:26:41;;;;;;;13.67;2.50;;;;;;;6.02;85.54;99697.09;10545057;28;20036;-71
2023/02/03 14:32:12;;;;;;;9.63;2.50;;;;;;;6.01;85.12;99690.13;10546250;28;20274;-70
2023/02/03 14:37:23;;;;;;;9.02;1.80;;;;;;;6.13;84.43;99694.25;10546870;28;20040;-71
2023/02/03 14:42:38;;;;;;;7.75;2.22;;;;;;;6.15;84.05;99696.84;10512865;28;20044;-72
2023/02/03 14:47:52;;;;;;;11.73;4.07;;;;;;;6.15;86.07;99697.69;10485722;28;20045;-71
2023/02/03 14:53:41;;;;;;;11.60;2.88;;;;;;;5.88;89.75;99734.69;10503476;28;20044;-71
2023/02/03 14:58:49;;;;;;;11.43;2.58;;;;;;;5.85;89.78;99714.75;10430230;28;20136;-72
2023/02/03 15:04:10;;;;;;;12.02;3.10;;;;;;;6.05;88.29;99717.03;10502686;28;20132;-72
2023/02/03 15:09:33;;;;;;;11.25;2.92;;;;;;;5.76;90.76;99712.31;10501841;28;20040;-71
2023/02/03 15:14:34;;;;;;;9.77;2.90;;;;;;;5.87;89.87;99725.16;10507844;28;20393;-71
2023/02/03 15:19:41;;;;;;;13.70;3.72;;;;;;;5.91;86.04;99748.53;10502442;28;20032;-71
2023/02/03 15:24:43;;;;;;;27.58;7.10;;;;;;;5.76;86.12;99741.84;10531088;28;20036;-72
2023/02/03 15:29:44;;;;;;;18.85;6.80;;;;;;;5.92;84.35;99752.91;10523612;28;20476;-71
2023/02/03 15:34:52;;;;;;;19.95;3.75;;;;;;;5.77;83.95;99755.75;10541670;28;20040;-72
2023/02/03 15:40:20;;;;;;;16.55;4.28;;;;;;;6.16;79.84;99775.13;10542617;28;20043;-71
2023/02/03 15:45:27;;;;;;;13.77;3.60;;;;;;;5.97;83.15;99776.31;10538099;28;20055;-72
2023/02/03 15:50:36;;;;;;;15.77;3.90;;;;;;;5.86;84.00;99775.59;10542147;28;20050;-72
2023/02/03 15:55:50;;;;;;;17.27;3.53;;;;;;;5.83;84.62;99781.72;10541480;28;20054;-72
2023/02/03 16:00:54;;;;;;;14.75;3.72;;;;;;;6.03;84.96;99777.06;10543883;28;20048;-72
2023/02/03 16:05:56;;;;;;;10.68;2.78;;;;;;;6.17;82.01;99782.03;10523406;28;20044;-72
2023/02/03 16:10:58;;;;;;;12.18;3.90;;;;;;;6.00;84.12;99791.91;10523497;28;20035;-72
2023/02/03 16:16:15;;;;;;;17.25;3.45;;;;;;;6.02;82.96;99800.56;10522635;28;20493;-72
2023/02/03 16:21:36;;;;;;;;;;;;;;;6.07;81.26;99809.19;10542828;28;20044;-71
2023/02/03 16:26:38;;;;;;;13.20;3.63;;;;;;;5.96;80.99;99814.59;10522594;28;19920;-72
2023/02/03 16:53:46;;;;;;;11.25;3.58;;;;;;;6.13;78.75;99847.38;10410715;28;20057;-72
2023/02/03 16:58:48;;;;;;;8.90;2.80;;;;;;;6.15;78.09;99858.63;10411801;28;20056;-73
2023/02/03 17:03:50;;;;;;;11.52;3.10;;;;;;;6.09;79.46;99859.59;10412101;28;20104;-71
2023/02/03 17:08:52;;;;;;;30.48;4.95;;;;;;;5.96;79.95;99866.75;10415252;28;20410;-71
2023/02/03 17:13:54;;;;;;;13.90;3.35;;;;;;;6.07;79.56;99887.47;10410517;28;20057;-73
2023/02/03 17:18:55;;;;;;;21.52;3.40;;;;;;;6.22;78.08;99881.16;10498257;28;20494;-73
2023/02/03 17:23:58;;;;;;;18.95;3.80;;;;;;;6.17;78.04;99877.75;10529145;28;20082;-72
2023/02/03 17:29:02;;;;;;;11.32;2.85;;;;;;;6.15;76.97;99885.59;10547832;28;20043;-72
2023/02/03 17:34:04;;;;;;;21.17;3.83;;;;;;;6.19;77.63;99892.47;10546640;28;20044;-73
2023/02/03 17:39:05;;;;;;;14.70;3.63;;;;;;;6.17;77.24;99894.28;10547724;28;20383;-72
2023/02/03 17:44:24;;;;;;;16.10;4.47;;;;;;;6.19;76.83;99899.47;10546341;28;20067;-73
2023/02/03 17:49:45;;;;;;;11.52;3.55;;;;;;;6.14;76.29;99902.13;10549742;28;20307;-73
2023/02/03 17:55:05;;;;;;;14.55;2.90;;;;;;;6.21;74.28;99929.03;10528687;28;20028;-73
2023/02/03 18:00:08;;;;;;;11.10;3.38;;;;;;;6.28;75.09;99921.03;10548291;28;20047;-73
2023/02/03 18:05:13;;;;;;;14.80;5.30;;;;;;;6.32;72.90;99927.94;10547247;28;20047;-73
2023/02/03 18:10:15;;;;;;;18.10;5.10;;;;;;;6.34;71.35;99943.59;10528480;28;20095;-72
2023/02/03 18:15:17;;;;;;;22.90;12.60;;;;;;;6.30;70.10;99934.94;10542485;28;20090;-72
2023/02/03 18:20:19;;;;;;;17.55;3.08;;;;;;;6.29;67.74;99950.66;10512531;28;20052;-73
2023/02/03 18:25:21;;;;;;;56.55;22.30;;;;;;;6.28;68.16;99961.94;10502800;28;20048;-73
2023/02/03 18:30:23;;;;;;;14.77;4.47;;;;;;;5.99;69.79;99970.22;10611584;22;20051;-74
2023/02/03 18:35:24;;;;;;;15.13;4.45;;;;;;;5.96;70.26;99981.56;10630544;27;20435;-74
2023/02/03 18:40:26;;;;;;;49.58;20.05;;;;;;;6.23;68.48;99961.16;10624269;27;20042;-73
2023/02/03 18:45:29;;;;;;;31.17;10.88;;;;;;;6.13;69.40;99972.63;10616150;27;20067;-74
2023/02/03 18:50:30;;;;;;;15.93;3.72;;;;;;;6.15;69.32;99978.69;10613054;27;20064;-74
2023/02/03 18:55:33;;;;;;;23.40;8.02;;;;;;;6.17;69.38;99977.78;10611428;27;20039;-75
2023/02/03 19:00:35;;;;;;;41.30;22.13;;;;;;;6.25;69.21;99981.16;10611641;27;20092;-73
2023/02/03 19:05:41;;;;;;;17.88;5.60;;;;;;;6.01;71.03;99990.19;10595408;27;20054;-72
2023/02/03 19:10:43;;;;;;;21.67;6.47;;;;;;;5.92;71.70;99972.03;10611912;27;20046;-73
2023/02/03 19:15:46;;;;;;;14.15;4.57;;;;;;;5.89;72.37;99964.25;10629319;27;20035;-74
2023/02/03 19:20:48;;;;;;;18.05;4.63;;;;;;;6.06;69.88;99988.41;10593250;27;20046;-74
2023/02/03 19:25:51;;;;;;;9.95;3.20;;;;;;;6.08;70.32;99972.72;10628615;27;20035;-73
2023/02/03 19:30:53;;;;;;;12.02;3.90;;;;;;;6.09;69.76;99963.97;10593154;27;20146;-74
2023/02/03 19:36:08;;;;;;;17.10;3.72;;;;;;;5.99;69.87;99963.25;10611717;27;20066;-73
2023/02/03 19:41:10;;;;;;;14.13;3.10;;;;;;;6.08;68.96;99972.72;10627494;27;20411;-74
2023/02/03 19:46:13;;;;;;;12.38;2.90;;;;;;;5.94;70.96;99983.34;10609615;27;20039;-73
2023/02/03 19:51:16;;;;;;;10.40;3.30;;;;;;;5.93;72.10;99983.34;10592453;27;20126;-73
2023/02/03 19:56:18;;;;;;;9.75;2.40;;;;;;;5.73;74.71;99983.59;10627794;27;20481;-77
2023/02/03 20:01:21;;;;;;;13.63;3.13;;;;;;;5.57;78.79;99977.69;10628697;27;20043;-75
2023/02/03 20:06:25;;;;;;;19.58;2.85;;;;;;;5.30;81.71;99991.91;10593367;27;20047;-75
2023/02/03 20:11:27;;;;;;;13.35;3.25;;;;;;;5.30;84.41;99994.50;10611177;27;20408;-75
2023/02/03 20:16:29;;;;;;;12.25;3.00;;;;;;;5.21;84.33;100003.28;10629014;27;20066;-74
2023/02/03 20:21:31;;;;;;;18.67;4.22;;;;;;;5.23;84.69;99993.75;10629284;27;20046;-74
2023/02/03 20:26:33;;;;;;;22.10;3.75;;;;;;;5.28;85.27;100001.50;10609215;27;20099;-74
2023/02/03 20:31:35;;;;;;;14.25;3.55;;;;;;;5.13;88.76;100002.50;10627546;27;20050;-74
2023/02/03 20:36:37;;;;;;;16.45;2.78;;;;;;;4.86;93.67;100002.78;10627072;28;20047;-73
2023/02/03 20:41:39;;;;;;;18.02;3.50;;;;;;;4.73;98.05;99984.66;10609038;28;20047;-74
2023/02/03 20:46:41;;;;;;;22.90;3.75;;;;;;;4.53;100.00;99997.00;10609698;28;20047;-74
2023/02/03 20:51:43;;;;;;;25.13;4.40;;;;;;;4.45;100.00;99999.66;10627776;28;20043;-74
2023/02/03 20:56:45;;;;;;;21.58;5.10;;;;;;;4.49;100.00;99990.94;10615197;27;20039;-74
2023/02/03 21:01:47;;;;;;;22.30;3.88;;;;;;;4.48;100.00;99991.81;10635386;27;20095;-74
2023/02/03 21:06:49;;;;;;;25.58;3.47;;;;;;;4.55;100.00;100011.69;10635707;27;20035;-75
2023/02/03 21:11:52;;;;;;;19.73;3.30;;;;;;;4.61;100.00;100017.75;10635056;27;20066;-75
2023/02/03 21:16:54;;;;;;;16.77;3.45;;;;;;;4.62;100.00;100028.16;10634735;27;20131;-74
2023/02/03 21:21:56;;;;;;;20.80;3.80;;;;;;;4.60;100.00;100019.47;10634591;27;20046;-74
2023/02/03 21:26:59;;;;;;;18.92;3.20;;;;;;;4.63;100.00;100005.59;10634566;27;20039;-74
2023/02/03 21:32:01;;;;;;;23.17;4.10;;;;;;;4.77;100.00;100037.56;10614935;27;20059;-74
2023/02/03 21:37:23;;;;;;;19.42;3.65;;;;;;;4.65;100.00;100033.34;10633546;27;20146;-73
2023/02/03 21:42:42;;;;;;;13.07;3.20;;;;;;;4.82;99.00;100030.59;10633512;27;20046;-75
2023/02/03 21:47:45;;;;;;;22.30;2.95;;;;;;;4.80;99.20;100034.97;10613992;27;20088;-74
2023/02/03 21:52:47;;;;;;;14.07;3.15;;;;;;;4.74;100.00;100050.66;10633084;27;20043;-74
2023/02/03 21:57:49;;;;;;;21.30;3.13;;;;;;;4.83;100.00;100060.13;10632892;27;20050;-74
2023/02/03 22:02:58;;;;;;;17.73;3.53;;;;;;;4.73;100.00;100061.91;10632362;27;20043;-74
2023/02/03 22:08:12;;;;;;;11.55;2.42;;;;;;;4.78;100.00;100091.38;10614241;27;20042;-74
2023/02/03 22:13:15;;;;;;;13.30;3.10;;;;;;;4.66;100.00;100104.50;10634536;27;20475;-74
2023/02/03 22:18:16;;;;;;;13.60;2.97;;;;;;;4.70;100.00;100101.88;10614287;27;20062;-74
2023/02/03 22:23:18;;;;;;;12.18;3.30;;;;;;;4.59;100.00;100111.47;10631559;27;20061;-74
2023/02/03 22:28:20;;;;;;;14.25;2.35;;;;;;;4.64;100.00;100122.72;10612773;27;20488;-75
2023/02/03 22:33:22;;;;;;;17.35;4.63;;;;;;;4.59;100.00;100118.44;10632030;27;20096;-74
2023/02/03 22:38:24;;;;;;;8.73;2.53;;;;;;;4.52;100.00;100113.28;10631783;27;20081;-73
2023/02/03 22:43:26;;;;;;;10.27;2.30;;;;;;;4.45;100.00;100126.31;10613938;27;20053;-75
2023/02/03 22:48:32;;;;;;;12.07;2.15;;;;;;;4.32;100.00;100129.84;10613704;27;20047;-74
2023/02/03 22:53:34;;;;;;;11.68;2.38;;;;;;;4.38;100.00;100140.22;10631385;27;20095;-74
2023/02/03 22:58:35;;;;;;;12.77;2.33;;;;;;;4.36;100.00;100123.78;10629264;27;20039;-74
2023/02/03 23:03:37;;;;;;;7.60;2.03;;;;;;;4.36;100.00;100145.44;10629440;27;20066;-74
2023/02/03 23:08:39;;;;;;;12.25;1.95;;;;;;;4.30;100.00;100148.09;10611037;27;20399;-74
2023/02/03 23:13:40;;;;;;;9.18;1.80;;;;;;;4.34;100.00;100147.22;10628881;27;20054;-74
2023/02/03 23:18:42;;;;;;;17.00;2.17;;;;;;;4.27;100.00;100155.91;10627480;27;20080;-74
2023/02/03 23:23:44;;;;;;;5.63;1.58;;;;;;;4.33;100.00;100148.06;10609583;27;20116;-73
2023/02/03 23:28:45;;;;;;;10.10;2.20;;;;;;;4.30;100.00;100161.97;10611090;27;20045;-74
2023/02/03 23:39:07;;;;;;;9.95;2.28;;;;;;;4.37;100.00;100156.72;10630718;27;20042;-73
2023/02/03 23:44:10;;;;;;;9.15;2.03;;;;;;;4.31;100.00;100173.22;10630142;27;20047;-73
2023/02/03 23:49:12;;;;;;;5.25;1.85;;;;;;;4.24;100.00;100198.41;10629743;27;20407;-75
2023/02/03 23:54:13;;;;;;;8.75;2.00;;;;;;;4.24;100.00;100239.16;10610021;27;20047;-73
2023/02/03 23:59:15;;;;;;;6.53;1.38;;;;;;;4.07;100.00;100308.56;10609568;27;20084;-74
